Time;durP1;ratioP1;P1;durP2;ratioP2;P2;SDS_P1;SDS_P2;PMS_P1;PMS_P2;Temp;Humidity;BMP_temperature;BMP_pressure;BME280_temperature;BME280_humidity;BME280_pressure;Samples;Min_cycle;Max_cycle;Signal;HPM_P1;HPM_P2
2022/07/09 00:03:27;;;;;;;1.98;1.20;;;22.60;97.40;;;;;;12954830;22;20199;-87
2022/07/09 00:08:30;;;;;;;1.35;1.05;;;22.60;97.40;;;;;;12954851;22;20613;-86
2022/07/09 00:13:33;;;;;;;1.30;1.20;;;22.60;97.40;;;;;;12982363;22;20196;-87
2022/07/09 00:18:36;;;;;;;1.23;1.13;;;22.60;97.40;;;;;;12954392;22;20202;-87
2022/07/09 00:23:39;;;;;;;2.35;1.40;;;22.60;97.40;;;;;;13000953;22;20575;-87
2022/07/09 00:28:42;;;;;;;1.50;0.98;;;22.60;97.50;;;;;;12954020;22;20177;-87
2022/07/09 00:33:44;;;;;;;3.53;1.30;;;22.60;97.70;;;;;;12981955;22;20215;-87
2022/07/09 00:38:47;;;;;;;1.98;1.23;;;22.50;97.50;;;;;;12928260;22;20251;-87
2022/07/09 00:43:50;;;;;;;1.42;1.15;;;22.50;97.60;;;;;;12982060;22;20200;-87
2022/07/09 00:48:53;;;;;;;1.20;1.05;;;22.50;97.60;;;;;;12955298;22;20173;-87
2022/07/09 00:53:56;;;;;;;1.33;1.15;;;22.50;97.50;;;;;;12954823;22;20174;-87
2022/07/09 00:58:59;;;;;;;1.23;1.13;;;22.50;97.60;;;;;;12954665;22;20251;-87
2022/07/09 01:04:01;;;;;;;1.08;0.98;;;22.50;97.60;;;;;;12981965;22;20166;-87
2022/07/09 01:09:04;;;;;;;1.92;1.40;;;22.50;97.60;;;;;;12981664;22;20229;-87
2022/07/09 01:14:06;;;;;;;1.05;1.00;;;22.50;97.60;;;;;;12955267;22;20166;-87
2022/07/09 01:19:09;;;;;;;2.05;1.38;;;22.50;97.60;;;;;;12981318;22;20560;-87
2022/07/09 01:24:11;;;;;;;2.13;1.20;;;22.50;97.60;;;;;;12980950;22;20219;-87
2022/07/09 01:29:14;;;;;;;1.85;1.27;;;22.40;97.60;;;;;;12982197;22;20170;-87
2022/07/09 01:34:16;;;;;;;1.80;1.23;;;22.50;97.50;;;;;;12980547;22;20170;-87
2022/07/09 01:39:19;;;;;;;1.52;1.17;;;22.40;97.50;;;;;;12998724;22;20182;-87
2022/07/09 01:44:21;;;;;;;1.70;1.20;;;22.40;97.60;;;;;;12981034;22;20525;-87
2022/07/09 01:49:24;;;;;;;1.52;1.27;;;22.40;97.60;;;;;;12980497;22;20166;-87
2022/07/09 01:54:26;;;;;;;1.90;1.55;;;22.40;97.60;;;;;;12980193;22;20177;-87
2022/07/09 01:59:29;;;;;;;1.10;1.00;;;22.40;97.60;;;;;;12980831;22;20186;-86
2022/07/09 02:04:31;;;;;;;7.18;1.60;;;22.40;97.50;;;;;;12953671;22;20169;-87
2022/07/09 02:09:34;;;;;;;1.70;1.60;;;22.50;97.50;;;;;;12984868;22;20174;-87
2022/07/09 02:14:37;;;;;;;2.10;1.65;;;22.50;97.40;;;;;;12985200;22;20170;-87
2022/07/09 02:19:39;;;;;;;1.75;1.38;;;22.60;97.30;;;;;;12985355;22;20185;-87
2022/07/09 02:24:42;;;;;;;1.58;1.40;;;22.60;97.30;;;;;;12985261;22;20166;-87
2022/07/09 02:29:44;;;;;;;1.45;1.30;;;22.60;97.30;;;;;;12957954;22;20170;-87
2022/07/09 02:34:47;;;;;;;2.47;1.42;;;22.60;97.30;;;;;;12958222;22;20169;-86
2022/07/09 02:39:49;;;;;;;1.63;1.10;;;22.60;97.20;;;;;;12958521;22;20255;-86
2022/07/09 02:44:51;;;;;;;1.45;1.35;;;22.60;97.30;;;;;;12957674;22;20546;-87
2022/07/09 02:49:54;;;;;;;1.45;1.35;;;22.60;97.30;;;;;;12984469;22;20233;-87
2022/07/09 02:54:57;;;;;;;1.45;1.20;;;22.60;97.40;;;;;;12957267;22;20231;-87
2022/07/09 02:59:59;;;;;;;1.58;1.30;;;22.60;97.40;;;;;;12993382;22;20190;-86
2022/07/09 03:05:02;;;;;;;1.80;1.30;;;22.60;97.40;;;;;;12955318;22;20219;-86
2022/07/09 03:10:05;;;;;;;2.45;1.50;;;22.60;97.40;;;;;;12956924;22;20227;-86
2022/07/09 03:15:08;;;;;;;1.63;1.30;;;22.70;97.30;;;;;;12955218;22;20173;-86
2022/07/09 03:20:11;;;;;;;1.27;1.17;;;22.60;97.30;;;;;;12982740;22;20189;-86
2022/07/09 03:25:14;;;;;;;1.25;1.15;;;22.60;97.30;;;;;;12983695;22;20196;-86
2022/07/09 03:30:16;;;;;;;2.00;1.30;;;22.70;97.40;;;;;;12983718;22;20165;-86
2022/07/09 03:35:19;;;;;;;2.35;1.40;;;22.70;97.30;;;;;;12954907;22;20175;-87
2022/07/09 03:40:21;;;;;;;2.38;1.73;;;22.70;97.30;;;;;;12981908;22;20572;-86
2022/07/09 03:45:24;;;;;;;1.63;1.42;;;22.70;97.30;;;;;;12955568;22;20177;-86
2022/07/09 03:50:27;;;;;;;1.88;1.70;;;22.70;97.20;;;;;;12982331;22;20220;-86
2022/07/09 03:55:29;;;;;;;1.40;1.23;;;22.70;97.30;;;;;;12982996;22;20548;-86
2022/07/09 04:00:31;;;;;;;1.92;1.58;;;22.70;97.20;;;;;;12954347;22;20263;-86
2022/07/09 04:05:34;;;;;;;2.95;1.45;;;22.70;97.50;;;;;;12981471;22;20165;-86
2022/07/09 04:10:36;;;;;;;1.85;1.55;;;22.70;97.00;;;;;;12982029;22;20491;-86
2022/07/09 04:15:39;;;;;;;1.65;1.42;;;22.70;97.10;;;;;;13000999;22;20637;-86
2022/07/09 04:20:41;;;;;;;1.55;1.30;;;22.70;97.30;;;;;;13000451;22;20189;-86
2022/07/09 04:25:45;;;;;;;1.63;1.27;;;22.70;97.30;;;;;;12982033;22;20559;-86
2022/07/09 04:30:48;;;;;;;1.52;1.02;;;22.60;97.50;;;;;;12980916;22;20215;-86
2022/07/09 04:35:50;;;;;;;2.17;1.40;;;22.80;97.10;;;;;;12953358;22;20569;-86
2022/07/09 04:40:53;;;;;;;1.58;1.48;;;22.70;97.20;;;;;;12953622;22;20710;-86
2022/07/09 04:45:55;;;;;;;6.78;1.75;;;22.70;97.30;;;;;;12999473;22;20170;-86
2022/07/09 04:50:58;;;;;;;1.60;1.50;;;22.60;97.50;;;;;;12929037;22;20173;-87
2022/07/09 04:56:01;;;;;;;2.10;1.50;;;22.50;97.60;;;;;;12981534;22;20204;-86
2022/07/09 05:01:04;;;;;;;2.47;1.48;;;22.60;97.20;;;;;;12954641;22;20567;-86
2022/07/09 05:06:06;;;;;;;2.10;1.48;;;22.60;97.60;;;;;;12981246;22;20567;-86
2022/07/09 05:11:10;;;;;;;1.58;1.40;;;22.40;97.70;;;;;;12982258;22;20174;-86
2022/07/09 05:16:19;;;;;;;3.22;1.83;;;22.50;97.60;;;;;;13000527;22;20189;-87
2022/07/09 05:21:21;;;;;;;3.00;1.25;;;22.50;97.60;;;;;;12981283;22;20189;-86
2022/07/09 05:26:24;;;;;;;3.65;1.80;;;22.70;97.10;;;;;;12990786;22;20169;-86
2022/07/09 05:31:26;;;;;;;5.80;1.80;;;22.70;97.20;;;;;;12981706;22;20223;-86
2022/07/09 05:36:38;;;;;;;1.90;1.30;;;22.60;97.40;;;;;;13000221;22;20546;-86
2022/07/09 05:41:41;;;;;;;2.33;1.45;;;22.70;97.30;;;;;;12954550;22;20251;-87
2022/07/09 05:46:43;;;;;;;3.80;1.30;;;22.60;97.60;;;;;;12982155;22;20216;-87
2022/07/09 05:51:45;;;;;;;8.05;1.83;;;22.50;97.50;;;;;;12982261;22;20165;-86
2022/07/09 05:56:48;;;;;;;2.28;1.40;;;22.20;96.50;;;;;;12955366;22;20550;-86
2022/07/09 06:01:50;;;;;;;2.38;1.60;;;22.40;97.10;;;;;;12955015;22;20254;-86
2022/07/09 06:06:53;;;;;;;2.08;1.60;;;22.30;97.50;;;;;;12974342;22;20192;-86
2022/07/09 06:11:55;;;;;;;3.08;1.33;;;22.10;97.70;;;;;;12955232;22;20181;-86
2022/07/09 06:17:05;;;;;;;2.58;1.85;;;20.80;99.30;;;;;;12999769;22;20165;-86
2022/07/09 06:22:07;;;;;;;3.75;1.60;;;21.50;98.30;;;;;;12954872;22;20201;-86
2022/07/09 06:27:11;;;;;;;1.83;1.45;;;21.70;97.20;;;;;;12991310;22;20169;-86
2022/07/09 06:32:13;;;;;;;2.80;1.70;;;22.00;96.20;;;;;;12983209;22;20170;-86
2022/07/09 06:37:15;;;;;;;1.05;0.95;;;22.00;98.20;;;;;;12982573;22;20166;-86
2022/07/09 06:42:18;;;;;;;1.65;1.55;;;22.10;97.80;;;;;;12982688;22;20247;-88
2022/07/09 06:47:31;;;;;;;3.17;1.30;;;22.30;97.10;;;;;;12954110;22;20219;-88
2022/07/09 06:52:33;;;;;;;2.78;1.70;;;22.20;97.20;;;;;;12984594;22;20166;-88
2022/07/09 06:57:36;;;;;;;3.35;1.75;;;22.30;94.80;;;;;;12986312;22;20169;-88
2022/07/09 07:02:38;;;;;;;1.45;1.35;;;22.50;96.40;;;;;;13006341;22;20519;-88
2022/07/09 07:07:41;;;;;;;2.65;1.63;;;22.70;96.50;;;;;;12975888;22;20162;-86
2022/07/09 07:12:44;;;;;;;4.85;1.58;;;22.70;96.30;;;;;;13000420;22;20157;-88
2022/07/09 07:17:48;;;;;;;1.52;1.42;;;22.90;94.30;;;;;;13038346;22;20149;-87
2022/07/09 07:22:57;;;;;;;1.48;1.33;;;22.70;95.70;;;;;;12992207;22;20203;-87
2022/07/09 07:28:01;;;;;;;1.80;1.70;;;23.00;95.30;;;;;;13015212;22;20264;-87
2022/07/09 07:33:03;;;;;;;4.00;1.98;;;23.10;95.10;;;;;;13042996;22;20201;-87
2022/07/09 07:38:06;;;;;;;2.55;1.85;;;23.00;94.90;;;;;;13036260;22;20221;-87
2022/07/09 07:43:12;;;;;;;3.05;1.85;;;23.20;95.00;;;;;;13018826;22;20207;-87
2022/07/09 07:48:14;;;;;;;2.90;1.65;;;22.80;94.70;;;;;;13040157;22;20165;-87
2022/07/09 07:53:17;;;;;;;5.07;1.42;;;23.20;94.80;;;;;;13032611;22;20162;-87
2022/07/09 07:58:19;;;;;;;7.63;2.00;;;22.90;92.40;;;;;;13038110;22;20195;-88
2022/07/09 08:03:22;;;;;;;1.48;1.33;;;22.90;94.80;;;;;;13018329;22;20174;-88
2022/07/09 08:08:33;;;;;;;2.17;1.65;;;23.20;94.40;;;;;;13017599;22;20244;-87
2022/07/09 08:13:35;;;;;;;1.95;1.75;;;23.10;94.50;;;;;;13019201;22;20213;-87
2022/07/09 08:18:38;;;;;;;4.30;1.85;;;23.00;94.40;;;;;;13063227;22;20287;-86
2022/07/09 08:23:57;;;;;;;1.60;1.50;;;23.00;94.40;;;;;;13019201;22;20193;-86
2022/07/09 08:28:59;;;;;;;1.42;1.33;;;22.90;94.60;;;;;;13044029;22;20233;-86
2022/07/09 08:34:02;;;;;;;2.25;1.55;;;23.20;94.10;;;;;;12996334;22;20178;-87
2022/07/09 08:39:04;;;;;;;1.70;1.60;;;23.10;92.80;;;;;;12992367;22;20474;-87
2022/07/09 08:44:11;;;;;;;2.15;2.00;;;22.80;94.10;;;;;;12989849;22;20187;-87
2022/07/09 08:49:15;;;;;;;2.08;1.70;;;22.60;94.40;;;;;;13007471;22;20219;-86
2022/07/09 08:54:20;;;;;;;1.90;1.55;;;22.50;94.40;;;;;;12965165;22;20178;-86
2022/07/09 08:59:22;;;;;;;3.72;1.80;;;23.10;94.10;;;;;;12964443;22;20201;-86
2022/07/09 09:04:25;;;;;;;1.77;1.52;;;22.90;93.50;;;;;;12989970;22;20185;-86
2022/07/09 09:09:28;;;;;;;3.65;1.85;;;23.10;93.90;;;;;;12987465;22;20570;-87
2022/07/09 09:14:30;;;;;;;4.88;1.63;;;22.50;94.40;;;;;;12959540;22;20174;-85
2022/07/09 09:19:39;;;;;;;3.88;2.30;;;20.60;92.40;;;;;;13005286;22;20170;-85
2022/07/09 09:24:42;;;;;;;4.50;1.60;;;19.90;94.20;;;;;;12959835;22;20185;-85
2022/07/09 09:29:51;;;;;;;4.10;1.90;;;20.50;93.80;;;;;;13004347;22;20491;-85
2022/07/09 09:34:54;;;;;;;3.17;1.75;;;21.30;92.70;;;;;;13002843;22;20223;-85
2022/07/09 09:39:56;;;;;;;2.42;1.33;;;21.50;92.40;;;;;;12984935;22;20177;-85
2022/07/09 09:45:00;;;;;;;2.35;1.30;;;21.70;92.30;;;;;;12957425;22;20186;-85
2022/07/09 09:50:02;;;;;;;2.63;1.40;;;21.80;91.80;;;;;;12956615;22;20170;-85
2022/07/09 09:55:06;;;;;;;2.72;1.38;;;21.80;92.10;;;;;;12984114;22;20219;-85
2022/07/09 10:00:11;;;;;;;4.13;1.80;;;22.00;91.30;;;;;;12956364;22;20259;-85
2022/07/09 10:05:14;;;;;;;2.30;1.55;;;22.50;90.90;;;;;;13004476;22;20501;-85
2022/07/09 10:10:20;;;;;;;2.40;1.55;;;22.30;91.50;;;;;;12983853;22;20169;-86
2022/07/09 10:15:26;;;;;;;3.25;1.33;;;22.20;91.80;;;;;;12955512;22;20243;-86
2022/07/09 10:20:34;;;;;;;2.13;1.40;;;22.50;90.80;;;;;;12953764;22;20177;-86
2022/07/09 10:25:45;;;;;;;5.88;1.80;;;22.30;90.50;;;;;;12996039;22;20239;-86
2022/07/09 10:30:48;;;;;;;3.33;1.55;;;21.30;90.60;;;;;;12957303;22;20174;-87
2022/07/09 10:35:52;;;;;;;3.97;1.45;;;20.80;90.80;;;;;;12985041;22;20231;-87
2022/07/09 10:40:59;;;;;;;5.07;1.70;;;20.70;91.10;;;;;;12956120;22;20174;-86
2022/07/09 10:46:12;;;;;;;4.25;2.05;;;20.20;91.70;;;;;;13000711;22;20188;-84
2022/07/09 10:51:19;;;;;;;6.88;1.83;;;20.40;92.20;;;;;;12975435;22;20166;-84
2022/07/09 10:56:22;;;;;;;2.33;1.55;;;20.70;92.60;;;;;;12983769;22;20170;-84
2022/07/09 11:01:26;;;;;;;3.72;1.80;;;20.20;92.20;;;;;;12987948;22;20193;-83
2022/07/09 11:06:29;;;;;;;2.95;1.60;;;20.70;92.60;;;;;;12955921;22;20174;-84
2022/07/09 11:11:31;;;;;;;3.90;1.67;;;20.70;92.10;;;;;;12994588;22;20174;-84
2022/07/09 11:16:33;;;;;;;4.75;1.98;;;20.60;92.20;;;;;;12956784;22;20170;-84
2022/07/09 11:21:36;;;;;;;11.32;1.52;;;20.30;92.90;;;;;;12956284;22;20178;-84
2022/07/09 11:26:38;;;;;;;4.25;1.88;;;20.40;93.40;;;;;;12981672;22;20166;-84
2022/07/09 11:31:51;;;;;;;4.68;1.95;;;20.80;93.20;;;;;;12955516;22;20220;-84
2022/07/09 11:36:56;;;;;;;27.92;7.57;;;20.80;93.20;;;;;;12999751;22;20170;-84
2022/07/09 11:42:00;;;;;;;5.03;1.85;;;21.10;93.50;;;;;;12981439;22;20177;-84
2022/07/09 11:47:17;;;;;;;2.40;1.55;;;20.80;94.00;;;;;;12982984;22;20167;-83
2022/07/09 11:52:22;;;;;;;2.92;1.25;;;21.10;93.40;;;;;;13001377;22;20511;-82
2022/07/09 11:57:25;;;;;;;3.10;1.95;;;20.90;93.70;;;;;;12954712;22;20174;-83
2022/07/09 12:02:39;;;;;;;3.53;1.60;;;20.70;94.50;;;;;;12981615;22;20189;-83
2022/07/09 12:07:51;;;;;;;8.02;1.67;;;20.70;94.30;;;;;;12999883;22;20165;-83
2022/07/09 12:12:53;;;;;;;1.65;0.85;;;20.60;94.40;;;;;;12979523;22;20181;-84
2022/07/09 12:17:58;;;;;;;5.43;1.35;;;20.50;95.20;;;;;;12951621;22;20196;-83
2022/07/09 12:23:01;;;;;;;11.02;1.98;;;20.60;95.20;;;;;;12977785;22;20189;-86
2022/07/09 12:28:03;;;;;;;8.52;1.65;;;20.90;95.40;;;;;;12977950;22;20169;-86
2022/07/09 12:33:06;;;;;;;3.83;1.65;;;21.30;94.50;;;;;;12950343;22;20170;-86
2022/07/09 12:38:08;;;;;;;2.53;1.27;;;21.60;94.70;;;;;;12994192;22;20174;-86
2022/07/09 12:43:11;;;;;;;1.73;1.58;;;21.70;94.20;;;;;;12979219;22;20232;-86
2022/07/09 12:48:13;;;;;;;2.47;1.58;;;22.10;93.50;;;;;;12949711;22;20169;-86
2022/07/09 12:53:17;;;;;;;3.22;1.70;;;22.10;93.00;;;;;;12981307;22;20239;-86
2022/07/09 12:58:20;;;;;;;2.17;1.20;;;22.00;93.30;;;;;;12981236;22;20193;-86
2022/07/09 13:03:22;;;;;;;4.22;1.45;;;22.20;93.30;;;;;;12981475;22;20185;-86
2022/07/09 13:08:25;;;;;;;4.50;1.65;;;22.40;92.70;;;;;;12980951;22;20188;-86
2022/07/09 13:13:27;;;;;;;6.43;0.80;;;22.30;92.80;;;;;;12981098;22;20174;-86
2022/07/09 13:18:30;;;;;;;2.50;1.00;;;22.20;93.00;;;;;;12954384;22;20170;-86
2022/07/09 13:23:32;;;;;;;2.55;1.33;;;22.40;92.90;;;;;;12926385;22;20201;-86
2022/07/09 13:28:35;;;;;;;2.50;1.17;;;22.50;92.50;;;;;;12978913;22;20211;-86
2022/07/09 13:33:38;;;;;;;1.83;1.15;;;22.60;92.40;;;;;;12977361;22;20174;-86
2022/07/09 13:38:41;;;;;;;2.17;1.00;;;22.10;92.70;;;;;;12947313;22;20566;-85
2022/07/09 13:43:45;;;;;;;2.28;1.08;;;22.40;92.00;;;;;;12949319;22;20182;-85
2022/07/09 13:48:48;;;;;;;2.38;1.40;;;22.50;92.50;;;;;;12994994;22;20162;-85
2022/07/09 13:53:50;;;;;;;2.00;1.15;;;22.50;92.30;;;;;;12975510;22;20169;-86
2022/07/09 13:58:53;;;;;;;1.95;1.23;;;22.60;92.30;;;;;;12974706;22;20535;-86
2022/07/09 14:03:55;;;;;;;1.33;1.13;;;22.30;91.60;;;;;;12976068;22;20239;-86
2022/07/09 14:08:58;;;;;;;2.25;1.15;;;22.70;92.40;;;;;;12976808;22;20196;-86
2022/07/09 14:14:00;;;;;;;2.15;1.40;;;22.70;92.20;;;;;;12947398;22;20181;-86
2022/07/09 14:19:03;;;;;;;3.70;1.90;;;22.90;92.00;;;;;;12968045;22;20166;-86
2022/07/09 14:24:05;;;;;;;2.42;1.85;;;22.50;91.80;;;;;;12948912;22;20189;-84
2022/07/09 14:29:08;;;;;;;2.47;1.33;;;22.80;92.00;;;;;;12946506;22;20630;-85
2022/07/09 14:34:10;;;;;;;1.67;1.33;;;22.80;91.80;;;;;;12994048;22;20219;-85
2022/07/09 14:39:13;;;;;;;2.55;1.55;;;22.80;91.90;;;;;;12948486;22;20516;-86
2022/07/09 14:44:15;;;;;;;3.33;1.38;;;23.00;92.00;;;;;;12948620;22;20636;-86
2022/07/09 14:49:18;;;;;;;3.88;1.33;;;23.00;92.00;;;;;;12995242;22;20187;-87
2022/07/09 14:54:20;;;;;;;1.35;1.02;;;22.80;92.10;;;;;;12976990;22;20547;-86
2022/07/09 14:59:23;;;;;;;4.05;1.67;;;22.70;92.40;;;;;;12975144;22;20676;-86
2022/07/09 15:04:25;;;;;;;1.83;1.17;;;22.60;92.80;;;;;;12975274;22;20216;-85
2022/07/09 15:09:28;;;;;;;1.30;1.20;;;22.50;93.00;;;;;;12975312;22;20244;-85
2022/07/09 15:14:30;;;;;;;2.67;0.98;;;22.80;92.80;;;;;;12952575;22;20174;-85
2022/07/09 15:19:33;;;;;;;0.75;0.75;;;22.90;92.40;;;;;;12979379;22;20224;-85
2022/07/09 15:24:35;;;;;;;1.35;0.90;;;22.70;92.60;;;;;;12952379;22;20193;-86
2022/07/09 15:29:38;;;;;;;1.52;0.85;;;22.20;93.80;;;;;;12952244;22;20231;-85
2022/07/09 15:34:42;;;;;;;2.38;1.40;;;20.80;98.20;;;;;;12951251;22;20223;-85
2022/07/09 15:39:45;;;;;;;2.85;1.08;;;21.70;97.60;;;;;;12975589;22;20174;-85
2022/07/09 15:44:47;;;;;;;3.15;1.58;;;22.10;97.10;;;;;;12996073;22;20190;-85
2022/07/09 15:49:50;;;;;;;3.10;1.67;;;22.40;96.70;;;;;;12978526;22;20211;-86
2022/07/09 15:54:52;;;;;;;2.83;1.38;;;22.00;97.90;;;;;;12995409;22;20169;-85
2022/07/09 15:59:55;;;;;;;4.55;1.77;;;21.00;99.90;;;;;;12988251;22;20212;-85
2022/07/09 16:05:03;;;;;;;2.72;1.30;;;21.30;99.90;;;;;;12977327;22;20259;-86
2022/07/09 16:10:05;;;;;;;5.35;1.80;;;22.00;99.60;;;;;;12982114;22;20517;-85
2022/07/09 16:15:08;;;;;;;3.00;1.70;;;22.50;98.30;;;;;;12999467;22;20169;-85
2022/07/09 16:20:11;;;;;;;1.80;1.17;;;22.90;97.00;;;;;;12954517;22;20487;-84
2022/07/09 16:25:14;;;;;;;1.30;1.20;;;23.00;96.70;;;;;;12981456;22;20186;-85
2022/07/09 16:30:17;;;;;;;4.90;1.92;;;22.80;96.80;;;;;;13000252;22;20166;-85
2022/07/09 16:35:19;;;;;;;1.30;1.20;;;23.00;96.70;;;;;;12999285;22;20196;-84
2022/07/09 16:40:22;;;;;;;2.58;1.10;;;23.00;96.20;;;;;;12927810;22;20178;-85
2022/07/09 16:45:24;;;;;;;1.42;1.30;;;22.60;96.70;;;;;;12980080;22;20676;-85
2022/07/09 16:50:27;;;;;;;11.10;2.03;;;22.60;96.70;;;;;;13000138;22;20162;-85
2022/07/09 16:55:29;;;;;;;1.65;0.85;;;22.50;96.80;;;;;;12980226;22;20698;-88
2022/07/09 17:00:32;;;;;;;1.33;0.80;;;21.70;99.30;;;;;;12952406;22;20206;-87
2022/07/09 17:05:34;;;;;;;3.92;1.30;;;21.90;99.10;;;;;;12981130;22;20212;-87
2022/07/09 17:10:39;;;;;;;3.60;0.98;;;22.10;98.60;;;;;;12953797;22;20170;-87
2022/07/09 17:15:42;;;;;;;2.17;1.13;;;22.00;98.80;;;;;;12927545;22;20227;-87
2022/07/09 17:20:45;;;;;;;3.20;0.88;;;22.20;98.20;;;;;;12981101;22;20215;-86
2022/07/09 17:25:48;;;;;;;2.45;1.00;;;22.40;97.80;;;;;;12951614;22;20197;-88
2022/07/09 17:30:51;;;;;;;3.92;0.80;;;22.30;97.90;;;;;;12949927;22;20196;-87
2022/07/09 17:35:53;;;;;;;2.20;1.17;;;22.70;97.50;;;;;;12950969;22;20178;-87
2022/07/09 17:40:56;;;;;;;3.70;1.27;;;22.80;97.30;;;;;;12980095;22;20224;-87
2022/07/09 17:45:59;;;;;;;2.17;1.10;;;22.70;97.50;;;;;;12953459;22;20236;-87
2022/07/09 17:51:02;;;;;;;1.58;1.02;;;22.30;98.00;;;;;;12952458;22;20653;-87
2022/07/09 17:56:05;;;;;;;2.75;1.05;;;22.50;97.80;;;;;;12951282;22;20231;-86
2022/07/09 18:01:08;;;;;;;4.32;1.40;;;22.50;97.70;;;;;;12914684;23;20194;-87
2022/07/09 18:06:12;;;;;;;1.95;0.93;;;22.50;97.80;;;;;;12915135;23;20572;-87
2022/07/09 18:11:15;;;;;;;2.95;1.17;;;22.30;98.10;;;;;;12913547;23;20178;-86
2022/07/09 18:16:17;;;;;;;3.45;0.90;;;22.20;98.20;;;;;;12887788;23;20178;-87
2022/07/09 18:21:21;;;;;;;1.38;0.90;;;22.20;98.40;;;;;;12916492;23;20240;-87
2022/07/09 18:26:23;;;;;;;1.42;0.80;;;22.20;98.40;;;;;;12912835;23;20186;-87
2022/07/09 18:31:26;;;;;;;1.45;0.82;;;22.20;98.50;;;;;;12914426;23;20167;-86
2022/07/09 18:36:28;;;;;;;1.55;0.90;;;22.00;98.70;;;;;;12886828;23;20228;-86
2022/07/09 18:41:31;;;;;;;1.00;0.82;;;22.00;98.70;;;;;;12889311;23;20236;-87
2022/07/09 18:46:33;;;;;;;2.03;1.30;;;22.10;98.60;;;;;;12889597;23;20190;-89
2022/07/09 18:51:36;;;;;;;1.10;1.00;;;21.90;98.80;;;;;;12919795;23;20664;-88
2022/07/09 18:56:39;;;;;;;1.40;0.90;;;22.00;98.70;;;;;;12920076;23;20224;-88
2022/07/09 19:01:42;;;;;;;4.53;1.20;;;22.00;98.80;;;;;;12972590;22;20193;-92
2022/07/09 19:06:44;;;;;;;3.05;1.58;;;22.00;99.30;;;;;;12983739;22;20697;-88
2022/07/09 19:11:47;;;;;;;2.42;1.27;;;21.40;99.90;;;;;;12933402;22;20904;-86
2022/07/09 19:16:49;;;;;;;0.90;0.65;;;21.40;99.90;;;;;;12936190;22;20182;-87
2022/07/09 19:21:52;;;;;;;1.23;1.00;;;22.10;99.90;;;;;;12957083;22;20239;-87
2022/07/09 19:26:54;;;;;;;1.67;1.30;;;22.60;98.50;;;;;;12931681;22;20197;-87
2022/07/09 19:37:19;;;;;;;2.38;1.58;;;23.10;97.70;;;;;;13002102;22;20488;-86
2022/07/09 19:42:21;;;;;;;2.45;1.13;;;22.90;97.10;;;;;;12983862;22;20220;-86
2022/07/09 19:47:24;;;;;;;1.02;0.90;;;23.30;96.30;;;;;;12983501;22;20185;-86
2022/07/09 19:52:27;;;;;;;1.70;1.05;;;23.50;96.70;;;;;;12983357;22;20219;-85
2022/07/09 19:57:29;;;;;;;196.90;19.70;;;23.60;96.20;;;;;;12982437;22;20219;-85
2022/07/09 20:02:31;;;;;;;227.70;23.42;;;22.70;95.00;;;;;;12955510;22;20568;-85
2022/07/09 20:07:34;;;;;;;132.35;16.08;;;23.10;94.90;;;;;;12982559;22;20238;-85
2022/07/09 20:12:37;;;;;;;144.93;15.35;;;23.40;94.30;;;;;;12955358;22;20505;-84
2022/07/09 20:17:40;;;;;;;109.43;13.63;;;23.40;94.30;;;;;;12982237;22;20556;-87
2022/07/09 20:22:42;;;;;;;111.47;12.93;;;23.50;94.20;;;;;;12982793;22;20628;-87
2022/07/09 20:27:45;;;;;;;95.53;12.00;;;23.50;94.30;;;;;;12981873;22;20529;-87
2022/07/09 20:32:47;;;;;;;82.25;12.35;;;23.80;94.10;;;;;;12949522;22;20174;-86
2022/07/09 20:37:50;;;;;;;79.80;11.65;;;23.70;94.10;;;;;;12979991;22;20210;-87
2022/07/09 20:42:52;;;;;;;73.63;10.68;;;24.00;93.90;;;;;;12951847;22;20705;-87
2022/07/09 20:47:57;;;;;;;60.05;8.98;;;24.00;93.80;;;;;;12950618;22;20185;-86
2022/07/09 20:53:03;;;;;;;52.33;9.05;;;24.00;93.80;;;;;;12949424;22;20166;-87
2022/07/09 20:58:05;;;;;;;88.80;10.02;;;24.00;93.90;;;;;;12957933;22;20223;-87
2022/07/09 21:03:08;;;;;;;72.55;8.63;;;24.00;93.90;;;;;;12950156;22;20170;-87
2022/07/09 21:08:10;;;;;;;47.53;8.40;;;24.00;94.00;;;;;;12948878;22;20166;-86
2022/07/09 21:13:13;;;;;;;1.73;1.52;;;24.00;94.10;;;;;;12984035;22;20616;-88
2022/07/09 21:23:40;;;;;;;29.60;6.22;;;21.80;99.90;;;;;;12994908;22;20282;-86
2022/07/09 21:28:42;;;;;;;33.92;7.35;;;23.10;99.10;;;;;;12923233;22;20174;-86
2022/07/09 21:33:45;;;;;;;31.85;5.40;;;23.50;98.00;;;;;;12976328;22;20166;-86
2022/07/09 21:38:47;;;;;;;36.33;6.90;;;23.60;97.50;;;;;;12994836;22;20239;-86
2022/07/09 21:43:50;;;;;;;25.33;5.35;;;23.80;97.10;;;;;;12976930;22;20181;-86
2022/07/09 21:48:53;;;;;;;36.33;7.72;;;23.80;96.90;;;;;;12976542;22;20166;-86
2022/07/09 21:53:55;;;;;;;27.48;5.05;;;23.80;96.80;;;;;;12949310;22;20644;-87
2022/07/09 21:58:58;;;;;;;20.25;4.95;;;23.80;96.70;;;;;;12976181;22;20528;-87
2022/07/09 22:04:00;;;;;;;20.30;4.00;;;23.80;96.60;;;;;;12975971;22;20522;-86
2022/07/09 22:09:03;;;;;;;20.92;4.40;;;23.70;96.90;;;;;;12948822;22;20223;-86
2022/07/09 22:14:05;;;;;;;22.52;3.88;;;23.70;96.40;;;;;;12948438;22;20174;-87
2022/07/09 22:19:08;;;;;;;18.42;4.90;;;23.80;96.60;;;;;;12947809;22;20203;-86
2022/07/09 22:24:11;;;;;;;14.27;3.90;;;23.60;96.80;;;;;;12996689;22;20216;-86
2022/07/09 22:29:13;;;;;;;17.85;4.45;;;23.80;96.70;;;;;;12956556;22;20170;-86
2022/07/09 22:34:15;;;;;;;14.32;3.33;;;23.60;96.70;;;;;;12979748;22;20173;-86
2022/07/09 22:39:18;;;;;;;12.93;3.00;;;23.70;96.70;;;;;;12980351;22;20166;-87
2022/07/09 22:44:20;;;;;;;11.18;2.88;;;23.70;96.60;;;;;;12980740;22;20471;-86
2022/07/09 22:49:23;;;;;;;15.40;3.80;;;23.70;96.60;;;;;;12927106;22;20173;-87
2022/07/09 22:54:26;;;;;;;14.63;3.00;;;23.70;96.50;;;;;;12979386;22;20232;-86
2022/07/09 22:59:28;;;;;;;9.75;2.75;;;23.60;96.60;;;;;;12979162;22;20220;-87
2022/07/09 23:04:31;;;;;;;4.22;2.08;;;23.70;96.60;;;;;;12979257;22;20193;-88
2022/07/09 23:09:33;;;;;;;11.63;3.15;;;23.70;96.60;;;;;;12983406;22;20162;-86
2022/07/09 23:14:35;;;;;;;7.22;2.78;;;23.60;96.80;;;;;;12982685;22;20794;-86
2022/07/09 23:19:38;;;;;;;9.55;2.55;;;23.60;96.80;;;;;;13002289;22;20551;-86
2022/07/09 23:24:41;;;;;;;10.60;3.22;;;23.40;97.00;;;;;;13001582;22;20228;-86
2022/07/09 23:29:45;;;;;;;8.70;3.13;;;23.40;97.00;;;;;;12982353;22;20652;-87
2022/07/09 23:34:47;;;;;;;8.68;2.50;;;23.40;97.00;;;;;;12982961;22;20174;-86
2022/07/09 23:39:50;;;;;;;10.73;2.80;;;23.40;97.00;;;;;;12929920;22;20178;-86
2022/07/09 23:44:52;;;;;;;7.43;2.88;;;23.40;97.20;;;;;;12954183;22;20533;-86
2022/07/09 23:49:55;;;;;;;5.68;2.05;;;23.20;97.30;;;;;;13000726;22;20161;-86
2022/07/09 23:54:57;;;;;;;9.63;3.15;;;23.10;97.30;;;;;;12982150;22;20166;-86
